createdAt,value
2023-01-30T00:01:08.223Z,2.20
2023-01-30T00:03:35.921Z,8.60
2023-01-30T00:06:03.837Z,5.20
2023-01-30T00:08:31.832Z,5.80
2023-01-30T00:10:59.497Z,6.00
2023-01-30T00:13:27.679Z,3.80
2023-01-30T00:15:55.466Z,1.00
2023-01-30T00:18:23.179Z,4.00
2023-01-30T00:20:50.956Z,4.00
2023-01-30T00:23:18.693Z,6.40
2023-01-30T00:25:46.501Z,7.00
2023-01-30T00:28:14.239Z,6.00
2023-01-30T00:30:41.940Z,5.20
2023-01-30T00:33:09.624Z,5.60
2023-01-30T00:35:38.971Z,7.00
2023-01-30T00:38:06.598Z,7.00
2023-01-30T00:40:34.233Z,6.00
2023-01-30T00:43:19.631Z,4.00
2023-01-30T00:46:04.535Z,6.00
2023-01-30T00:48:32.529Z,6.60
2023-01-30T00:51:00.124Z,6.40
2023-01-30T00:53:27.973Z,7.80
2023-01-30T00:55:55.994Z,6.20
2023-01-30T00:58:23.670Z,2.20
2023-01-30T01:00:51.349Z,5.60
2023-01-30T01:03:19.186Z,5.60
2023-01-30T01:05:47.187Z,7.40
2023-01-30T01:08:14.833Z,6.40
2023-01-30T01:10:42.728Z,6.00
2023-01-30T01:13:10.754Z,4.00
2023-01-30T01:15:38.474Z,7.80
2023-01-30T01:18:06.827Z,3.20
2023-01-30T01:20:34.481Z,7.00
2023-01-30T01:23:02.091Z,7.40
2023-01-30T01:25:29.989Z,4.20
2023-01-30T01:27:57.729Z,6.20
2023-01-30T01:30:25.350Z,4.40
2023-01-30T01:32:53.011Z,3.80
2023-01-30T01:35:20.672Z,7.00
2023-01-30T01:37:48.416Z,5.20
2023-01-30T01:40:34.336Z,5.60
2023-01-30T01:43:01.949Z,7.80
2023-01-30T01:45:29.567Z,6.00
2023-01-30T01:47:57.671Z,8.80
2023-01-30T01:50:25.235Z,5.20
2023-01-30T01:52:53.182Z,7.40
2023-01-30T01:55:20.904Z,6.00
2023-01-30T01:57:48.506Z,5.60
2023-01-30T02:00:16.412Z,1.20
2023-01-30T02:02:44.485Z,6.00
2023-01-30T02:05:13.216Z,5.20
2023-01-30T02:07:40.807Z,6.00
2023-01-30T02:10:08.400Z,7.00
2023-01-30T02:12:36.312Z,1.00
2023-01-30T02:15:03.868Z,4.00
2023-01-30T02:17:32.004Z,1.80
2023-01-30T02:19:59.621Z,4.00
2023-01-30T02:22:27.203Z,3.00
2023-01-30T02:24:55.095Z,4.40
2023-01-30T02:27:22.793Z,4.40
2023-01-30T02:29:50.814Z,4.40
2023-01-30T02:32:19.616Z,5.20
2023-01-30T02:34:47.183Z,4.00
2023-01-30T02:37:14.908Z,5.20
2023-01-30T02:39:42.657Z,4.80
2023-01-30T02:42:10.593Z,3.00
2023-01-30T02:44:38.167Z,8.60
2023-01-30T02:47:06.185Z,6.80
2023-01-30T02:49:33.734Z,4.80
2023-01-30T02:52:01.547Z,5.60
2023-01-30T02:54:29.265Z,4.40
2023-01-30T02:56:56.821Z,6.60
2023-01-30T02:59:24.384Z,6.00
2023-01-30T03:01:52.097Z,5.20
2023-01-30T03:04:27.760Z,1.00
2023-01-30T03:06:55.397Z,5.60
2023-01-30T03:09:23.240Z,9.20
2023-01-30T03:11:50.871Z,6.00
2023-01-30T03:14:18.687Z,4.00
2023-01-30T03:16:46.281Z,5.60
2023-01-30T03:19:14.227Z,4.00
2023-01-30T03:21:41.838Z,7.80
2023-01-30T03:24:09.427Z,9.80
2023-01-30T03:26:37.057Z,10.00
2023-01-30T03:29:04.817Z,6.80
2023-01-30T03:31:33.605Z,7.80
2023-01-30T03:34:01.253Z,2.60
2023-01-30T03:36:28.905Z,1.80
2023-01-30T03:38:56.738Z,6.40
2023-01-30T03:41:24.338Z,7.00
2023-01-30T03:43:52.271Z,6.80
2023-01-30T03:46:19.834Z,6.00
2023-01-30T03:48:47.428Z,6.60
2023-01-30T03:51:15.230Z,9.40
2023-01-30T03:53:42.785Z,12.60
2023-01-30T03:56:10.756Z,9.20
2023-01-30T03:58:38.382Z,7.00
2023-01-30T04:01:06.106Z,7.00
2023-01-30T04:03:33.917Z,8.80
2023-01-30T04:06:01.536Z,6.60
2023-01-30T04:08:29.367Z,1.40
2023-01-30T04:10:56.945Z,6.80
2023-01-30T04:13:24.881Z,7.00
2023-01-30T04:15:52.501Z,6.40
2023-01-30T04:18:20.155Z,7.00
2023-01-30T04:20:47.847Z,5.20
2023-01-30T04:23:15.462Z,8.20
2023-01-30T04:25:43.269Z,9.00
2023-01-30T04:28:10.916Z,5.20
2023-01-30T04:30:38.520Z,6.40
2023-01-30T04:33:06.591Z,3.80
2023-01-30T04:35:34.697Z,7.00
2023-01-30T04:38:02.261Z,5.40
2023-01-30T04:40:30.610Z,7.00
2023-01-30T04:42:58.434Z,8.20
2023-01-30T04:45:26.400Z,5.40
2023-01-30T04:47:54.022Z,6.60
2023-01-30T04:50:21.665Z,4.40
2023-01-30T04:52:49.429Z,6.00
2023-01-30T04:55:17.207Z,4.00
2023-01-30T04:57:45.721Z,3.00
2023-01-30T05:00:13.409Z,2.60
2023-01-30T05:02:41.009Z,6.80
2023-01-30T05:05:08.737Z,5.60
2023-01-30T05:07:36.311Z,6.00
2023-01-30T05:10:04.530Z,5.20
2023-01-30T05:12:32.194Z,1.40
2023-01-30T05:15:00.094Z,6.60
2023-01-30T05:17:27.773Z,3.40
2023-01-30T05:19:55.785Z,3.00
2023-01-30T05:22:23.813Z,0.00
2023-01-30T05:24:51.533Z,6.20
2023-01-30T05:27:19.201Z,2.60
2023-01-30T05:29:46.985Z,0.40
2023-01-30T05:32:14.606Z,3.20
2023-01-30T05:34:42.375Z,4.40
2023-01-30T05:37:10.029Z,1.00
2023-01-30T05:39:37.642Z,4.00
2023-01-30T05:42:07.329Z,4.00
2023-01-30T05:44:35.026Z,0.20
2023-01-30T05:47:02.957Z,1.00
2023-01-30T05:49:30.633Z,3.00
2023-01-30T05:51:58.228Z,4.00
2023-01-30T05:54:25.861Z,5.60
2023-01-30T05:56:53.513Z,1.00
2023-01-30T05:59:21.490Z,3.80
2023-01-30T06:01:49.098Z,0.00
2023-01-30T06:04:17.261Z,3.20
2023-01-30T06:06:45.007Z,3.20
2023-01-30T06:09:12.687Z,2.60
2023-01-30T06:11:40.741Z,3.00
2023-01-30T06:14:08.453Z,1.00
2023-01-30T06:16:36.110Z,1.00
2023-01-30T06:19:03.767Z,3.00
2023-01-30T06:21:31.405Z,1.00
2023-01-30T06:23:59.125Z,0.00
2023-01-30T06:26:27.253Z,3.80
2023-01-30T06:28:54.936Z,3.40
2023-01-30T06:31:22.574Z,0.40
2023-01-30T06:33:50.348Z,3.00
2023-01-30T06:36:18.369Z,3.20
2023-01-30T06:38:45.992Z,3.00
2023-01-30T06:41:13.806Z,1.40
2023-01-30T06:43:41.647Z,4.00
2023-01-30T06:46:10.110Z,3.00
2023-01-30T06:48:38.979Z,3.40
2023-01-30T06:51:06.590Z,3.60
2023-01-30T06:53:34.192Z,6.20
2023-01-30T06:56:02.164Z,1.80
2023-01-30T06:58:29.838Z,6.00
2023-01-30T07:00:57.765Z,6.00
2023-01-30T07:03:25.425Z,6.80
2023-01-30T07:05:53.128Z,5.20
2023-01-30T07:08:22.520Z,5.20
2023-01-30T07:10:51.447Z,5.60
2023-01-30T07:13:19.431Z,6.00
2023-01-30T07:15:47.365Z,1.80
2023-01-30T07:18:15.103Z,6.00
2023-01-30T07:20:43.612Z,6.20
2023-01-30T07:23:11.270Z,5.60
2023-01-30T07:25:39.082Z,3.00
2023-01-30T07:28:06.801Z,6.00
2023-01-30T07:30:36.103Z,0.60
2023-01-30T07:33:05.912Z,7.00
2023-01-30T07:35:33.647Z,6.40
2023-01-30T07:38:01.737Z,2.00
2023-01-30T07:40:29.674Z,9.80
2023-01-30T07:42:57.465Z,3.00
2023-01-30T07:45:25.410Z,6.80
2023-01-30T07:47:53.176Z,4.00
2023-01-30T07:50:21.259Z,7.80
2023-01-30T07:52:48.926Z,6.20
2023-01-30T07:55:17.194Z,6.80
2023-01-30T07:57:45.111Z,6.00
2023-01-30T08:00:13.107Z,4.40
2023-01-30T08:02:41.082Z,6.40
2023-01-30T08:05:08.761Z,6.00
2023-01-30T08:07:36.474Z,2.20
2023-01-30T08:10:04.515Z,6.40
2023-01-30T08:12:32.474Z,3.00
2023-01-30T08:15:00.717Z,2.20
2023-01-30T08:17:28.541Z,3.20
2023-01-30T08:19:56.204Z,3.80
2023-01-30T08:22:24.065Z,5.60
2023-01-30T08:24:51.916Z,3.40
2023-01-30T08:27:19.845Z,4.00
2023-01-30T08:29:47.617Z,3.00
2023-01-30T08:32:15.981Z,0.00
2023-01-30T08:34:44.087Z,2.60
2023-01-30T08:37:12.209Z,1.00
2023-01-30T08:39:40.422Z,2.50
2023-01-30T08:42:08.247Z,1.40
2023-01-30T08:44:36.038Z,1.00
2023-01-30T08:47:04.062Z,1.50
2023-01-30T08:49:31.925Z,1.00
2023-01-30T08:52:00.032Z,1.00
2023-01-30T08:54:27.962Z,1.00
2023-01-30T08:56:55.672Z,1.00
2023-01-30T08:59:24.774Z,1.00
2023-01-30T09:01:52.675Z,1.50
2023-01-30T09:04:20.802Z,1.50
2023-01-30T09:06:48.617Z,1.00
2023-01-30T09:09:16.431Z,1.00
2023-01-30T09:11:44.421Z,0.75
2023-01-30T09:14:12.158Z,0.50
2023-01-30T09:16:40.555Z,0.00
2023-01-30T09:19:08.385Z,0.00
2023-01-30T09:21:36.227Z,1.00
2023-01-30T09:24:04.208Z,0.50
2023-01-30T09:26:32.137Z,1.00
2023-01-30T09:29:00.222Z,0.75
2023-01-30T09:31:28.257Z,0.00
2023-01-30T09:33:56.154Z,1.00
2023-01-30T09:36:24.253Z,1.50
2023-01-30T09:38:52.078Z,1.00
2023-01-30T09:41:20.131Z,0.50
2023-01-30T09:43:47.813Z,0.25
2023-01-30T09:46:15.685Z,0.00
2023-01-30T09:48:43.399Z,1.00
2023-01-30T09:51:11.197Z,0.00
2023-01-30T09:53:39.748Z,1.00
2023-01-30T09:56:07.565Z,0.25
2023-01-30T09:58:35.368Z,0.00
2023-01-30T10:01:03.568Z,3.00
2023-01-30T10:03:32.208Z,0.50
2023-01-30T10:06:00.496Z,0.00
2023-01-30T10:08:28.297Z,0.00
2023-01-30T10:11:08.845Z,0.75
2023-01-30T10:13:37.620Z,0.00
2023-01-30T10:16:05.993Z,0.00
2023-01-30T10:18:33.851Z,0.00
2023-01-30T10:21:01.820Z,0.00
2023-01-30T10:23:30.190Z,1.00
2023-01-30T10:25:58.203Z,0.00
2023-01-30T10:28:27.073Z,0.00
2023-01-30T10:30:54.975Z,0.75
2023-01-30T10:33:22.917Z,1.00
2023-01-30T10:35:50.736Z,3.00
2023-01-30T10:38:18.939Z,1.00
2023-01-30T10:40:47.098Z,1.00
2023-01-30T10:43:15.048Z,0.00
2023-01-30T10:45:43.422Z,0.75
2023-01-30T10:48:11.375Z,2.00
2023-01-30T10:50:39.308Z,3.00
2023-01-30T10:53:07.226Z,0.00
2023-01-30T10:55:37.942Z,1.00
2023-01-30T10:58:06.304Z,0.00
2023-01-30T11:00:34.185Z,0.00
2023-01-30T11:03:02.230Z,1.00
2023-01-30T11:05:30.454Z,0.25
2023-01-30T11:07:58.751Z,3.00
2023-01-30T11:10:26.709Z,0.50
2023-01-30T11:12:54.598Z,0.75
2023-01-30T11:15:24.941Z,1.00
2023-01-30T11:17:52.841Z,3.00
2023-01-30T11:20:21.218Z,1.00
2023-01-30T11:22:49.175Z,0.25
2023-01-30T11:25:17.479Z,0.00
2023-01-30T11:27:45.896Z,1.00
2023-01-30T11:30:15.334Z,0.50
2023-01-30T11:32:43.308Z,0.00
2023-01-30T11:35:11.435Z,0.00
2023-01-30T11:37:39.324Z,0.00
2023-01-30T11:40:07.931Z,0.00
2023-01-30T11:42:36.241Z,1.00
2023-01-30T11:45:16.765Z,0.00
2023-01-30T11:47:54.248Z,0.00
2023-01-30T11:50:26.486Z,0.00
2023-01-30T11:52:57.187Z,0.75
2023-01-30T11:55:25.221Z,1.00
2023-01-30T11:57:54.224Z,0.00
2023-01-30T12:00:22.495Z,0.00
2023-01-30T12:02:51.331Z,1.00
2023-01-30T12:05:19.735Z,0.00
2023-01-30T12:07:48.073Z,0.00
2023-01-30T12:10:16.353Z,0.50
2023-01-30T12:12:44.689Z,0.00
2023-01-30T12:15:13.151Z,0.00
2023-01-30T12:17:41.091Z,0.00
2023-01-30T12:20:09.078Z,1.00
2023-01-30T12:22:37.083Z,1.00
2023-01-30T12:25:05.135Z,0.00
2023-01-30T12:27:33.163Z,0.75
2023-01-30T12:30:02.374Z,0.00
2023-01-30T12:32:30.782Z,0.00
2023-01-30T12:35:00.538Z,0.00
2023-01-30T12:37:28.464Z,1.00
2023-01-30T12:39:56.696Z,0.50
2023-01-30T12:42:25.789Z,0.00
2023-01-30T12:44:54.242Z,1.00
2023-01-30T12:47:23.002Z,0.50
2023-01-30T12:49:50.876Z,0.00
2023-01-30T12:52:19.085Z,0.00
2023-01-30T12:54:47.076Z,0.00
2023-01-30T12:57:16.420Z,0.00
2023-01-30T12:59:49.139Z,0.00
2023-01-30T13:02:17.069Z,1.00
2023-01-30T13:04:56.297Z,0.00
2023-01-30T13:07:30.030Z,0.00
2023-01-30T13:09:58.207Z,1.00
2023-01-30T13:12:26.074Z,0.00
2023-01-30T13:14:54.498Z,0.00
2023-01-30T13:17:22.738Z,0.00
2023-01-30T13:19:50.546Z,1.00
2023-01-30T13:22:18.973Z,0.50
2023-01-30T13:24:46.878Z,0.50
2023-01-30T13:27:15.102Z,0.75
2023-01-30T13:29:43.075Z,0.00
2023-01-30T13:32:11.102Z,0.00
2023-01-30T13:34:39.418Z,0.25
2023-01-30T13:37:07.543Z,1.00
2023-01-30T13:39:37.119Z,1.00
2023-01-30T13:42:10.350Z,0.25
2023-01-30T13:44:40.726Z,0.00
2023-01-30T13:47:09.258Z,1.00
2023-01-30T13:49:37.499Z,3.00
2023-01-30T13:52:05.495Z,1.00
2023-01-30T13:54:33.346Z,1.00
2023-01-30T13:57:01.628Z,0.00
2023-01-30T13:59:29.832Z,0.00
2023-01-30T14:01:58.018Z,0.25
2023-01-30T14:04:26.058Z,1.00
2023-01-30T14:06:56.137Z,0.00
2023-01-30T14:09:24.036Z,1.00
2023-01-30T14:11:52.451Z,0.00
2023-01-30T14:14:20.703Z,0.00
2023-01-30T14:16:48.901Z,0.00
2023-01-30T14:19:16.893Z,0.00
2023-01-30T14:21:44.632Z,0.00
2023-01-30T14:24:13.139Z,1.00
2023-01-30T14:26:41.250Z,0.00
2023-01-30T14:29:09.281Z,0.00
2023-01-30T14:31:37.357Z,1.00
2023-01-30T14:34:05.440Z,0.00
2023-01-30T14:36:33.708Z,0.00
2023-01-30T14:39:01.809Z,0.00
2023-01-30T14:41:30.275Z,0.25
2023-01-30T14:43:58.286Z,0.00
2023-01-30T14:46:26.213Z,0.00
2023-01-30T14:48:54.727Z,0.00
2023-01-30T14:51:22.817Z,0.00
2023-01-30T14:53:50.730Z,0.00
2023-01-30T14:56:18.639Z,0.00
2023-01-30T14:58:46.711Z,0.00
2023-01-30T15:01:15.380Z,1.00
2023-01-30T15:03:44.635Z,0.00
2023-01-30T15:06:12.626Z,0.75
2023-01-30T15:08:40.482Z,0.00
2023-01-30T15:11:09.456Z,0.00
2023-01-30T15:13:38.129Z,0.00
2023-01-30T15:16:06.250Z,0.00
2023-01-30T15:18:34.290Z,0.00
2023-01-30T15:21:02.047Z,0.00
2023-01-30T15:23:30.085Z,0.00
2023-01-30T15:25:58.935Z,0.00
2023-01-30T15:28:27.130Z,0.00
2023-01-30T15:30:57.604Z,1.00
2023-01-30T15:33:31.534Z,0.00
2023-01-30T15:36:00.344Z,0.00
2023-01-30T15:38:28.678Z,0.00
2023-01-30T15:40:56.676Z,0.00
2023-01-30T15:43:24.733Z,0.00
2023-01-30T15:45:52.731Z,0.80
2023-01-30T15:48:20.703Z,3.60
2023-01-30T15:50:48.640Z,0.00
2023-01-30T15:53:16.584Z,0.00
2023-01-30T15:55:44.648Z,2.20
2023-01-30T15:58:12.477Z,0.00
2023-01-30T16:00:41.114Z,0.40
2023-01-30T16:03:09.053Z,0.00
2023-01-30T16:05:36.961Z,3.00
2023-01-30T16:08:05.481Z,1.00
2023-01-30T16:10:33.489Z,1.00
2023-01-30T16:13:01.937Z,1.40
2023-01-30T16:15:30.626Z,1.00
2023-01-30T16:17:58.750Z,3.40
2023-01-30T16:20:26.631Z,1.00
2023-01-30T16:22:54.693Z,0.00
2023-01-30T16:25:23.001Z,2.20
2023-01-30T16:27:52.102Z,0.60
2023-01-30T16:30:20.933Z,0.60
2023-01-30T16:32:49.097Z,0.80
2023-01-30T16:35:17.282Z,1.00
2023-01-30T16:37:45.984Z,1.40
2023-01-30T16:40:14.519Z,2.20
2023-01-30T16:42:42.431Z,1.40
2023-01-30T16:45:10.377Z,0.00
2023-01-30T16:47:38.329Z,0.00
2023-01-30T16:50:06.509Z,1.00
2023-01-30T16:52:37.154Z,1.00
2023-01-30T16:55:05.093Z,0.00
2023-01-30T16:57:36.500Z,0.40
2023-01-30T17:00:04.767Z,0.40
2023-01-30T17:02:33.043Z,0.00
2023-01-30T17:05:01.134Z,0.00
2023-01-30T17:07:29.287Z,0.00
2023-01-30T17:09:57.328Z,0.00
2023-01-30T17:12:25.343Z,1.00
2023-01-30T17:14:53.825Z,0.00
2023-01-30T17:17:22.735Z,0.00
2023-01-30T17:19:50.772Z,1.00
2023-01-30T17:22:21.012Z,0.50
2023-01-30T17:24:48.991Z,0.25
2023-01-30T17:27:17.360Z,0.75
2023-01-30T17:29:47.567Z,0.25
2023-01-30T17:32:15.595Z,0.40
2023-01-30T17:34:43.776Z,1.00
2023-01-30T17:37:12.188Z,1.00
2023-01-30T17:39:40.521Z,1.00
2023-01-30T17:42:09.834Z,1.00
2023-01-30T17:44:38.875Z,2.20
2023-01-30T17:47:07.073Z,1.00
2023-01-30T17:49:34.974Z,0.40
2023-01-30T17:52:03.097Z,0.00
2023-01-30T17:54:31.778Z,1.00
2023-01-30T17:56:59.645Z,0.40
2023-01-30T17:59:28.247Z,0.00
2023-01-30T18:01:56.138Z,0.00
2023-01-30T18:04:24.752Z,1.00
2023-01-30T18:06:53.027Z,0.80
2023-01-30T18:09:20.981Z,1.00
2023-01-30T18:11:48.827Z,3.00
2023-01-30T18:14:16.850Z,3.00
2023-01-30T18:16:44.761Z,1.00
2023-01-30T18:19:12.948Z,0.00
2023-01-30T18:21:43.228Z,0.60
2023-01-30T18:24:11.078Z,1.80
2023-01-30T18:26:38.952Z,1.00
2023-01-30T18:29:07.201Z,1.00
2023-01-30T18:31:35.578Z,0.00
2023-01-30T18:34:03.562Z,0.00
2023-01-30T18:36:31.528Z,1.00
2023-01-30T18:38:59.331Z,0.40
2023-01-30T18:41:28.185Z,0.80
2023-01-30T18:43:56.740Z,0.00
2023-01-30T18:46:24.924Z,0.00
2023-01-30T18:48:52.994Z,1.00
2023-01-30T18:51:21.077Z,1.40
2023-01-30T18:53:49.099Z,1.00
2023-01-30T18:56:17.686Z,1.00
2023-01-30T18:58:46.224Z,2.60
2023-01-30T19:01:14.373Z,0.20
2023-01-30T19:03:42.594Z,1.00
2023-01-30T19:06:11.894Z,0.00
2023-01-30T19:08:39.824Z,3.80
2023-01-30T19:11:28.567Z,1.00
2023-01-30T19:13:55.407Z,0.20
2023-01-30T19:16:23.702Z,1.00
2023-01-30T19:18:51.779Z,0.00
2023-01-30T19:21:19.658Z,0.00
2023-01-30T19:23:47.545Z,1.00
2023-01-30T19:26:15.664Z,0.00
2023-01-30T19:28:45.245Z,0.00
2023-01-30T19:31:13.989Z,0.20
2023-01-30T19:33:42.053Z,0.00
2023-01-30T19:36:09.899Z,0.00
2023-01-30T19:38:37.652Z,0.60
2023-01-30T19:41:05.811Z,3.00
2023-01-30T19:43:33.924Z,1.00
2023-01-30T19:46:02.704Z,1.00
2023-01-30T19:48:30.755Z,0.00
2023-01-30T19:51:01.092Z,0.00
2023-01-30T19:53:29.391Z,1.00
2023-01-30T19:55:57.333Z,0.00
2023-01-30T19:58:25.223Z,1.00
2023-01-30T20:00:53.116Z,0.40
2023-01-30T20:03:21.180Z,0.00
2023-01-30T20:05:49.043Z,0.00
2023-01-30T20:08:31.755Z,0.00
2023-01-30T20:11:00.545Z,0.00
2023-01-30T20:13:28.367Z,0.00
2023-01-30T20:15:58.474Z,0.00
2023-01-30T20:18:26.827Z,0.80
2023-01-30T20:20:54.743Z,0.00
2023-01-30T20:23:23.250Z,0.60
2023-01-30T20:25:51.176Z,0.00
2023-01-30T20:28:19.849Z,0.40
2023-01-30T20:30:48.043Z,0.00
2023-01-30T20:33:16.970Z,0.00
2023-01-30T20:35:44.965Z,0.00
2023-01-30T20:38:12.939Z,0.00
2023-01-30T20:40:41.339Z,0.00
2023-01-30T20:43:09.355Z,0.00
2023-01-30T20:45:37.371Z,0.00
2023-01-30T20:48:05.790Z,0.00
2023-01-30T20:50:33.590Z,0.40
2023-01-30T20:53:02.097Z,0.80
2023-01-30T20:55:30.286Z,0.00
2023-01-30T20:57:58.218Z,1.00
2023-01-30T21:00:26.089Z,1.00
2023-01-30T21:02:54.153Z,2.20
2023-01-30T21:05:22.492Z,0.80
2023-01-30T21:07:50.603Z,1.00
2023-01-30T21:10:19.317Z,0.20
2023-01-30T21:12:47.244Z,1.00
2023-01-30T21:15:15.133Z,0.00
2023-01-30T21:17:43.541Z,1.00
2023-01-30T21:20:11.450Z,0.00
2023-01-30T21:22:39.382Z,1.00
2023-01-30T21:25:07.504Z,1.00
2023-01-30T21:27:35.557Z,0.00
2023-01-30T21:30:03.977Z,0.40
2023-01-30T21:32:33.855Z,0.00
2023-01-30T21:35:01.785Z,3.00
2023-01-30T21:37:46.895Z,1.80
2023-01-30T21:40:32.492Z,0.00
2023-01-30T21:43:15.990Z,1.00
2023-01-30T21:45:43.954Z,0.00
2023-01-30T21:48:11.878Z,0.40
2023-01-30T21:50:40.381Z,0.60
2023-01-30T21:53:08.348Z,0.60
2023-01-30T21:55:36.616Z,2.20
2023-01-30T21:58:04.508Z,0.40
2023-01-30T22:00:32.363Z,0.00
2023-01-30T22:03:00.955Z,0.60
2023-01-30T22:05:36.771Z,0.00
2023-01-30T22:08:05.302Z,2.20
2023-01-30T22:10:33.263Z,0.00
2023-01-30T22:13:01.168Z,0.00
2023-01-30T22:15:28.954Z,0.00
2023-01-30T22:17:56.779Z,0.00
2023-01-30T22:20:24.870Z,0.00
2023-01-30T22:22:52.629Z,0.60
2023-01-30T22:25:21.226Z,0.00
2023-01-30T22:27:49.577Z,0.00
2023-01-30T22:30:17.415Z,0.00
2023-01-30T22:32:45.525Z,0.00
2023-01-30T22:35:13.885Z,0.40
2023-01-30T22:37:42.332Z,0.00
2023-01-30T22:40:10.110Z,0.00
2023-01-30T22:42:38.379Z,0.00
2023-01-30T22:45:06.563Z,0.00
2023-01-30T22:47:34.261Z,0.20
2023-01-30T22:50:02.218Z,0.00
2023-01-30T22:52:30.046Z,0.00
2023-01-30T22:54:57.914Z,0.40
2023-01-30T22:57:27.357Z,0.00
2023-01-30T22:59:55.184Z,0.00
2023-01-30T23:02:23.471Z,0.00
2023-01-30T23:04:53.257Z,0.00
2023-01-30T23:07:22.429Z,0.00
2023-01-30T23:09:50.346Z,0.00
2023-01-30T23:12:35.681Z,0.00
2023-01-30T23:15:03.513Z,1.00
2023-01-30T23:17:45.803Z,0.60
2023-01-30T23:20:13.849Z,0.00
2023-01-30T23:22:42.107Z,0.00
2023-01-30T23:25:11.366Z,0.00
2023-01-30T23:27:39.154Z,0.00
2023-01-30T23:30:06.941Z,0.60
2023-01-30T23:32:35.590Z,0.00
2023-01-30T23:35:03.715Z,0.00
2023-01-30T23:37:45.240Z,0.00
2023-01-30T23:40:13.004Z,0.40
2023-01-30T23:42:40.709Z,0.40
2023-01-30T23:45:09.099Z,1.00
2023-01-30T23:47:36.813Z,0.00
2023-01-30T23:50:04.718Z,0.00
2023-01-30T23:52:32.494Z,0.80
2023-01-30T23:55:00.313Z,0.00
2023-01-30T23:57:28.691Z,0.60
2023-01-30T23:59:56.536Z,0.00
